Celebrity Century — 9HJI9 — position and weather

sailwx.info

Track history (hours):
 
Tides and Currents Weather Stations Pressure Air Temp Water Temp Dewpoint Dewpoint Depression Visibility Wind Speed Wind Dir Waves Ship Positions

Celebrity Century

Last reported at 2016-Jul-24 19:23 UTC. Time now 2016-Jul-24 20:32 UTC.
Position N 31°11' E 122°10'.

Length 252 m; draft 7.9 m.

Type: Ship. MMSI: 249054000.

Date/timePositionNaut miles runAvg speedWind from/ knotsBaromVisibWave heightAir tempDewpointWater temp
2016-Jul-24 19:23N 31°11' E 122°10'  
2016-Jul-21 13:33N 31°05' E 122°44'1211.7
2016-Jul-21 12:33N 31°05' E 122°30'1110.6
2016-Jul-21 11:30N 31°07' E 122°18'1213.2
2016-Jul-21 10:33N 31°14' E 122°06'1413.5
2016-Jul-21 09:31N 31°17' E 121°50'1212.6
2016-Jul-21 08:33N 31°22' E 121°37'6 5.6
2016-Jul-21 07:25N 31°25' E 121°30'0 0.0
2016-Jul-21 06:19N 31°25' E 121°30'0 0.0
2016-Jul-21 05:31N 31°25' E 121°30'0 0.0
2016-Jul-21 04:31N 31°25' E 121°30'0 0.0
2016-Jul-21 03:07N 31°25' E 121°30'0 0.0
2016-Jul-21 02:31N 31°25' E 121°30'0 0.0
2016-Jul-21 01:25N 31°25' E 121°30'0 0.0
2016-Jul-21 00:25N 31°25' E 121°30'1 1.7
2016-Jul-20 23:34N 31°24' E 121°32'10 9.5
2016-Jul-20 22:32N 31°20' E 121°42'1111.3
2016-Jul-20 21:32N 31°16' E 121°54'1211.2
2016-Jul-20 20:28N 31°13' E 122°08'1011.2
2016-Jul-20 19:33N 31°07' E 122°17'1212.4
2016-Jul-20 18:33N 31°07' E 122°32'  
2016-Jul-17 09:29N 31°16' E 121°53'1212.9
2016-Jul-17 08:33N 31°21' E 121°40'9 8.6
2016-Jul-17 07:27N 31°25' E 121°30'0 0.0
2016-Jul-16 23:28N 31°25' E 121°30'2 2.7
2016-Jul-16 22:33N 31°24' E 121°33'1110.5
2016-Jul-16 21:32N 31°19' E 121°44'1311.3
2016-Jul-16 20:25N 31°15' E 121°58'  
Track history (hours):
 
Tides and Currents Weather Stations Pressure Air Temp Water Temp Dewpoint Dewpoint Depression Visibility Wind Speed Wind Dir Waves Ship Positions

Celebrity Century

Last reported at 2016-Jul-24 19:23 UTC. Time now 2016-Jul-24 20:32 UTC.
Position N 31°11' E 122°10'.

Length 252 m; draft 7.9 m.

Type: Ship. MMSI: 249054000.

Date/timePositionNaut miles runAvg speedWind from/ knotsBaromVisibWave heightAir tempDewpointWater temp
2016-Jul-24 19:23N 31°11' E 122°10'  
2016-Jul-21 13:33N 31°05' E 122°44'1211.7
2016-Jul-21 12:33N 31°05' E 122°30'1110.6
2016-Jul-21 11:30N 31°07' E 122°18'1213.2
2016-Jul-21 10:33N 31°14' E 122°06'1413.5
2016-Jul-21 09:31N 31°17' E 121°50'1212.6
2016-Jul-21 08:33N 31°22' E 121°37'6 5.6
2016-Jul-21 07:25N 31°25' E 121°30'0 0.0
2016-Jul-21 06:19N 31°25' E 121°30'0 0.0
2016-Jul-21 05:31N 31°25' E 121°30'0 0.0
2016-Jul-21 04:31N 31°25' E 121°30'0 0.0
2016-Jul-21 03:07N 31°25' E 121°30'0 0.0
2016-Jul-21 02:31N 31°25' E 121°30'0 0.0
2016-Jul-21 01:25N 31°25' E 121°30'0 0.0
2016-Jul-21 00:25N 31°25' E 121°30'1 1.7
2016-Jul-20 23:34N 31°24' E 121°32'10 9.5
2016-Jul-20 22:32N 31°20' E 121°42'1111.3
2016-Jul-20 21:32N 31°16' E 121°54'1211.2
2016-Jul-20 20:28N 31°13' E 122°08'1011.2
2016-Jul-20 19:33N 31°07' E 122°17'1212.4
2016-Jul-20 18:33N 31°07' E 122°32'  
2016-Jul-17 09:29N 31°16' E 121°53'1212.9
2016-Jul-17 08:33N 31°21' E 121°40'9 8.6
2016-Jul-17 07:27N 31°25' E 121°30'0 0.0
2016-Jul-16 23:28N 31°25' E 121°30'2 2.7
2016-Jul-16 22:33N 31°24' E 121°33'1110.5
2016-Jul-16 21:32N 31°19' E 121°44'1311.3
2016-Jul-16 20:25N 31°15' E 121°58'  

Dump ship's entire track history